Time;durP1;ratioP1;P1;durP2;ratioP2;P2;SDS_P1;SDS_P2;PMS_P1;PMS_P2;Temp;Humidity;BMP_temperature;BMP_pressure;BME280_temperature;BME280_humidity;BME280_pressure;Samples;Min_cycle;Max_cycle;Signal;HPM_P1;HPM_P2
2020/12/07 00:00:01;;;;;;;9.70;8.70;;;;;;;0.81;100.00;94073.28;1052801;28;20024;-88
2020/12/07 00:00:32;;;;;;;10.75;9.65;;;;;;;0.81;100.00;94063.63;1052809;28;20020;-87
2020/12/07 00:01:04;;;;;;;9.65;8.63;;;;;;;0.80;100.00;94064.66;1052722;28;20020;-88
2020/12/07 00:01:34;;;;;;;10.77;9.68;;;;;;;0.81;100.00;94071.44;1052834;28;20061;-88
2020/12/07 00:02:04;;;;;;;11.05;9.60;;;;;;;0.79;100.00;94062.28;1052555;28;20058;-86
2020/12/07 00:02:35;;;;;;;10.93;9.93;;;;;;;0.84;100.00;94065.78;1052771;28;20093;-86
2020/12/07 00:03:05;;;;;;;10.75;9.63;;;;;;;0.87;100.00;94070.50;1052646;28;20415;-87
2020/12/07 00:03:36;;;;;;;11.13;9.98;;;;;;;0.81;100.00;94075.88;1052397;28;20370;-87
2020/12/07 00:04:06;;;;;;;12.18;10.90;;;;;;;0.71;100.00;94071.31;1052758;28;20099;-81
2020/12/07 00:04:36;;;;;;;10.82;9.65;;;;;;;0.67;100.00;94070.19;1052135;28;20023;-86
2020/12/07 00:05:07;;;;;;;10.98;9.15;;;;;;;0.66;100.00;94065.22;1053894;28;20043;-88
2020/12/07 00:05:37;;;;;;;10.35;9.25;;;;;;;0.70;100.00;94064.50;1052728;28;20496;-88
2020/12/07 00:06:08;;;;;;;10.15;9.15;;;;;;;0.72;100.00;94067.69;1052284;28;20061;-86
2020/12/07 00:06:38;;;;;;;11.35;10.15;;;;;;;0.76;100.00;94065.38;1048324;28;20025;-87
2020/12/07 00:07:08;;;;;;;11.68;10.48;;;;;;;0.68;100.00;94065.75;1048307;28;20020;-86
2020/12/07 00:07:39;;;;;;;10.88;9.75;;;;;;;0.65;100.00;94059.22;1048822;28;20025;-86
2020/12/07 00:08:10;;;;;;;12.48;11.18;;;;;;;0.71;100.00;94065.28;1048386;28;20381;-86
2020/12/07 00:08:40;;;;;;;12.07;10.70;;;;;;;0.75;100.00;94063.81;1052428;28;20507;-87
2020/12/07 00:09:11;;;;;;;10.75;9.65;;;;;;;0.78;100.00;94060.72;1052430;28;20016;-86
2020/12/07 00:09:41;;;;;;;9.65;8.65;;;;;;;0.79;100.00;94057.88;1052454;28;20028;-85
2020/12/07 00:10:12;;;;;;;9.73;8.77;;;;;;;0.82;100.00;94048.78;1053026;28;20095;-85
2020/12/07 00:10:42;;;;;;;10.60;9.52;;;;;;;0.79;100.00;94054.47;1052671;28;20024;-86
2020/12/07 00:11:13;;;;;;;10.88;9.73;;;;;;;0.81;100.00;94040.16;1052679;28;20028;-86
2020/12/07 00:11:49;;;;;;;10.55;9.40;;;;;;;0.81;100.00;94044.59;1052624;28;20020;-86
2020/12/07 00:12:25;;;;;;;10.43;9.43;;;;;;;0.85;100.00;94043.09;1052719;28;20028;-86
2020/12/07 00:12:55;;;;;;;9.73;8.73;;;;;;;0.85;100.00;94043.88;1050261;28;20070;-86
2020/12/07 00:13:26;;;;;;;10.60;9.50;;;;;;;0.84;100.00;94046.75;1052258;28;20081;-86
2020/12/07 00:13:56;;;;;;;10.13;8.85;;;;;;;0.76;100.00;94053.13;1052487;28;20039;-87
2020/12/07 00:14:27;;;;;;;10.55;9.45;;;;;;;0.75;100.00;94048.16;1051896;28;20070;-87
2020/12/07 00:14:58;;;;;;;10.30;9.27;;;;;;;0.81;100.00;94044.59;1052627;28;20021;-87
2020/12/07 00:15:28;;;;;;;10.10;9.10;;;;;;;0.82;100.00;94038.34;1050866;28;20069;-87
2020/12/07 00:15:59;;;;;;;10.90;9.80;;;;;;;0.81;100.00;94044.59;1052566;28;20101;-87
2020/12/07 00:16:29;;;;;;;11.15;9.88;;;;;;;0.76;100.00;94041.91;1052711;28;20085;-87
2020/12/07 00:16:59;;;;;;;11.07;9.98;;;;;;;0.77;100.00;94035.66;1052828;28;20615;-87
2020/12/07 00:17:30;;;;;;;11.35;10.20;;;;;;;0.79;100.00;94036.22;1052510;28;20046;-87
2020/12/07 00:18:01;;;;;;;9.93;8.93;;;;;;;0.83;100.00;94039.94;1052369;28;20033;-87
2020/12/07 00:18:31;;;;;;;10.68;9.63;;;;;;;0.75;100.00;94032.50;1049880;28;20517;-85
2020/12/07 00:19:02;;;;;;;10.95;9.73;;;;;;;0.72;100.00;94025.97;1052476;28;20050;-85
2020/12/07 00:19:32;;;;;;;12.18;10.93;;;;;;;0.73;100.00;94024.13;1052838;28;20075;-85
2020/12/07 00:20:03;;;;;;;12.00;10.77;;;;;;;0.70;100.00;94032.41;1052791;28;20028;-87
2020/12/07 00:20:34;;;;;;;11.40;10.30;;;;;;;0.68;100.00;94021.44;1052825;28;20016;-84
2020/12/07 00:21:08;;;;;;;11.88;10.60;;;;;;;0.68;100.00;94034.47;1052709;28;20028;-85
2020/12/07 00:21:42;;;;;;;10.75;9.57;;;;;;;0.69;100.00;94033.44;1052800;28;20016;-85
2020/12/07 00:22:13;;;;;;;10.20;9.10;;;;;;;0.68;100.00;94029.25;1050405;28;20028;-86
2020/12/07 00:22:43;;;;;;;10.55;9.45;;;;;;;0.63;100.00;94032.59;1052694;28;20488;-85
2020/12/07 00:23:13;;;;;;;12.35;11.00;;;;;;;0.62;100.00;94030.22;1052688;28;20504;-87
2020/12/07 00:23:44;;;;;;;13.18;10.38;;;;;;;0.67;100.00;94038.13;1052713;28;20031;-84
2020/12/07 00:24:14;;;;;;;10.73;9.63;;;;;;;0.70;100.00;94040.25;1052783;28;20031;-85
2020/12/07 00:24:45;;;;;;;11.18;10.05;;;;;;;0.72;100.00;94038.22;1052419;28;20031;-85
2020/12/07 00:25:15;;;;;;;10.60;9.55;;;;;;;0.73;100.00;94030.16;1052665;28;20035;-86
2020/12/07 00:25:45;;;;;;;11.65;9.40;;;;;;;0.75;100.00;94032.50;1052602;28;20038;-86
2020/12/07 00:26:16;;;;;;;12.68;11.38;;;;;;;0.70;100.00;94029.81;1052629;28;20024;-86
2020/12/07 00:26:46;;;;;;;10.38;9.27;;;;;;;0.75;100.00;94029.91;1052576;28;20025;-85
2020/12/07 00:27:23;;;;;;;10.93;9.82;;;;;;;0.73;100.00;94026.75;1052776;28;20036;-86
2020/12/07 00:27:53;;;;;;;11.10;9.93;;;;;;;0.78;100.00;94024.22;1050286;28;20166;-85
2020/12/07 00:28:24;;;;;;;10.15;9.15;;;;;;;0.82;100.00;94027.91;1052722;28;20020;-86
2020/12/07 00:28:58;;;;;;;10.65;9.55;;;;;;;0.83;100.00;94032.13;1052489;28;20031;-84
2020/12/07 00:29:29;;;;;;;11.73;10.48;;;;;;;0.80;100.00;94033.38;1052677;28;20031;-86
2020/12/07 00:29:59;;;;;;;10.45;9.35;;;;;;;0.82;100.00;94028.69;1052619;28;20024;-86
2020/12/07 00:30:30;;;;;;;10.10;9.07;;;;;;;0.80;100.00;94025.53;1052322;28;20020;-85
2020/12/07 00:31:04;;;;;;;10.80;9.70;;;;;;;0.78;100.00;94024.22;1052298;28;20035;-85
2020/12/07 00:31:34;;;;;;;11.77;10.57;;;;;;;0.75;100.00;94024.69;1050028;28;20024;-86
2020/12/07 00:32:05;;;;;;;10.85;9.75;;;;;;;0.73;100.00;94024.94;1052192;28;20024;-86
2020/12/07 00:32:35;;;;;;;10.63;9.57;;;;;;;0.72;100.00;94019.97;1051865;28;20065;-86
2020/12/07 00:33:06;;;;;;;10.50;9.50;;;;;;;0.75;100.00;94025.47;1050688;28;20110;-86
2020/12/07 00:33:36;;;;;;;10.38;9.38;;;;;;;0.77;100.00;94025.25;1051442;28;20025;-85
2020/12/07 00:34:06;;;;;;;11.13;10.02;;;;;;;0.80;100.00;94027.34;1051898;28;20053;-86
2020/12/07 00:34:37;;;;;;;12.00;10.07;;;;;;;0.80;100.00;94020.31;1052394;28;20024;-86
2020/12/07 00:35:07;;;;;;;12.00;10.80;;;;;;;0.72;100.00;94018.13;1052246;28;20025;-86
2020/12/07 00:35:38;;;;;;;11.55;10.45;;;;;;;0.78;100.00;94019.00;1052306;28;20023;-85
2020/12/07 00:36:08;;;;;;;10.60;9.23;;;;;;;0.81;100.00;94026.34;1052255;28;20008;-85
2020/12/07 00:36:42;;;;;;;11.20;9.52;;;;;;;0.78;100.00;94026.81;1052407;28;20397;-85
2020/12/07 00:37:12;;;;;;;12.23;10.93;;;;;;;0.77;100.00;94025.25;1050166;28;20024;-85
2020/12/07 00:37:43;;;;;;;10.73;9.65;;;;;;;0.81;100.00;94023.72;1052247;28;20020;-86
2020/12/07 00:38:13;;;;;;;11.85;10.65;;;;;;;0.78;100.00;94019.00;1052776;28;20031;-85
2020/12/07 00:38:44;;;;;;;11.23;10.13;;;;;;;0.78;100.00;94021.59;1052950;28;20019;-84
2020/12/07 00:39:14;;;;;;;11.57;10.38;;;;;;;0.74;100.00;94017.91;1047277;28;20029;-85
2020/12/07 00:39:44;;;;;;;10.77;9.68;;;;;;;0.77;100.00;94020.81;1051463;28;20024;-84
2020/12/07 00:40:15;;;;;;;11.18;10.07;;;;;;;0.73;100.00;94017.09;1052667;28;20008;-85
2020/12/07 00:40:45;;;;;;;11.30;10.10;;;;;;;0.79;100.00;94020.56;1052825;28;20408;-85
2020/12/07 00:41:20;;;;;;;10.75;9.65;;;;;;;0.78;100.00;94019.00;1053444;28;20019;-84
2020/12/07 00:41:50;;;;;;;10.35;9.27;;;;;;;0.82;100.00;94018.25;1053307;28;20016;-86
2020/12/07 00:42:21;;;;;;;11.05;9.95;;;;;;;0.81;100.00;94018.50;1053600;28;20032;-86
2020/12/07 00:42:51;;;;;;;10.43;9.35;;;;;;;0.81;100.00;94018.50;1050585;28;20028;-87
2020/12/07 00:43:22;;;;;;;10.32;9.27;;;;;;;0.85;100.00;94017.81;1053143;28;20017;-86
2020/12/07 00:43:52;;;;;;;10.23;9.02;;;;;;;0.80;100.00;94006.50;1052963;28;20077;-86
2020/12/07 00:44:22;;;;;;;11.50;10.30;;;;;;;0.86;100.00;94016.00;1053131;28;20024;-86
2020/12/07 00:44:53;;;;;;;12.10;10.68;;;;;;;0.85;100.00;94009.19;1052918;28;20020;-86
2020/12/07 00:45:23;;;;;;;11.68;10.52;;;;;;;0.84;100.00;94007.63;1053369;28;20020;-86
2020/12/07 00:45:54;;;;;;;10.20;9.20;;;;;;;0.89;100.00;94007.69;1053315;28;20032;-86
2020/12/07 00:46:24;;;;;;;10.82;9.73;;;;;;;0.85;100.00;94009.19;1057076;28;20483;-86
2020/12/07 00:46:54;;;;;;;12.30;9.95;;;;;;;0.80;100.00;94012.50;1057317;28;20026;-87
2020/12/07 00:47:25;;;;;;;11.95;10.65;;;;;;;0.78;100.00;94008.56;1057270;28;20035;-87
2020/12/07 00:47:55;;;;;;;13.20;11.13;;;;;;;0.70;100.00;94011.56;1057059;28;20024;-89
2020/12/07 00:48:26;;;;;;;11.82;10.48;;;;;;;0.72;100.00;94015.53;1053457;28;20016;-88
2020/12/07 00:48:56;;;;;;;14.88;11.50;;;;;;;0.71;100.00;94013.13;1053540;28;20419;-88
2020/12/07 00:49:27;;;;;;;11.65;10.45;;;;;;;0.73;100.00;94011.09;1053516;28;20418;-88
2020/12/07 00:49:57;;;;;;;11.75;10.30;;;;;;;0.71;100.00;94013.13;1053536;28;20081;-88
2020/12/07 00:50:27;;;;;;;10.65;9.57;;;;;;;0.76;100.00;94006.19;1053263;28;20024;-85
2020/12/07 00:50:58;;;;;;;10.68;9.57;;;;;;;0.79;100.00;94015.34;1053524;28;20032;-85
2020/12/07 00:51:28;;;;;;;11.48;10.27;;;;;;;0.80;100.00;94017.72;1053254;28;20016;-85
2020/12/07 00:51:59;;;;;;;13.02;11.43;;;;;;;0.80;100.00;94016.94;1053471;28;20031;-85
2020/12/07 00:52:29;;;;;;;11.55;10.25;;;;;;;0.72;100.00;94017.34;1052979;28;20039;-85
2020/12/07 00:52:59;;;;;;;11.60;10.40;;;;;;;0.77;100.00;94020.81;1053274;28;20016;-86
2020/12/07 00:53:30;;;;;;;11.48;10.23;;;;;;;0.80;100.00;94022.94;1050579;28;20016;-85
2020/12/07 00:54:00;;;;;;;11.65;10.45;;;;;;;0.78;100.00;94026.81;1048830;28;20032;-85
2020/12/07 00:54:31;;;;;;;12.55;11.25;;;;;;;0.77;100.00;94030.44;1052526;28;20043;-86
2020/12/07 00:55:01;;;;;;;13.10;11.73;;;;;;;0.80;100.00;94029.97;1053090;28;20511;-84
2020/12/07 00:55:32;;;;;;;12.38;10.93;;;;;;;0.80;100.00;94027.34;1050599;28;20055;-84
2020/12/07 00:56:02;;;;;;;12.35;11.05;;;;;;;0.75;100.00;94035.91;1053181;28;20020;-84
2020/12/07 00:56:33;;;;;;;12.57;11.00;;;;;;;0.77;100.00;94040.88;1053271;28;20024;-85
2020/12/07 00:57:04;;;;;;;12.45;10.63;;;;;;;0.76;100.00;94047.13;1053724;28;20073;-85
2020/12/07 00:57:34;;;;;;;12.85;11.38;;;;;;;0.74;100.00;94038.75;1053696;28;20024;-83
2020/12/07 00:58:04;;;;;;;12.65;11.40;;;;;;;0.72;100.00;94049.44;1053163;28;20028;-83
2020/12/07 00:58:35;;;;;;;12.15;10.88;;;;;;;0.74;100.00;94051.78;1053326;28;20100;-83
2020/12/07 00:59:05;;;;;;;11.68;10.48;;;;;;;0.74;100.00;94059.63;1053216;28;20526;-84
2020/12/07 00:59:36;;;;;;;11.93;10.73;;;;;;;0.74;100.00;94054.41;1053186;28;20088;-84
2020/12/07 01:00:06;;;;;;;11.75;10.55;;;;;;;0.77;100.00;94059.13;1053159;28;20060;-84
2020/12/07 01:00:37;;;;;;;11.57;10.38;;;;;;;0.80;100.00;94069.09;1053061;28;20019;-84
2020/12/07 01:01:07;;;;;;;13.05;10.63;;;;;;;0.79;100.00;94067.50;1053221;28;20024;-84
2020/12/07 01:01:38;;;;;;;10.73;9.63;;;;;;;0.77;100.00;94074.78;1053486;28;20024;-86
2020/12/07 01:02:08;;;;;;;11.05;9.95;;;;;;;0.81;100.00;94074.06;1053011;28;20885;-85
2020/12/07 01:02:38;;;;;;;11.35;10.15;;;;;;;0.84;100.00;94076.22;1053263;28;20031;-86
2020/12/07 01:03:09;;;;;;;12.13;10.88;;;;;;;0.88;100.00;94082.53;1053269;28;20016;-86
2020/12/07 01:03:39;;;;;;;12.27;10.98;;;;;;;0.88;100.00;94087.75;1053418;28;20024;-85
2020/12/07 01:04:10;;;;;;;11.63;10.43;;;;;;;0.85;100.00;94082.22;1053266;28;20024;-86
2020/12/07 01:04:40;;;;;;;11.82;10.55;;;;;;;0.91;100.00;94096.13;1052909;28;20516;-86
2020/12/07 01:05:11;;;;;;;11.43;10.30;;;;;;;0.91;100.00;94104.72;1053320;28;20487;-86
2020/12/07 01:05:41;;;;;;;11.25;10.15;;;;;;;0.84;100.00;94106.72;1053418;28;20020;-85
2020/12/07 01:06:11;;;;;;;12.48;11.18;;;;;;;0.91;100.00;94116.97;1053117;28;20020;-85
2020/12/07 01:06:45;;;;;;;10.90;9.80;;;;;;;0.90;100.00;94118.78;1053236;28;20027;-86
2020/12/07 01:07:16;;;;;;;13.00;11.40;;;;;;;0.92;100.00;94129.78;1053135;28;20518;-86
2020/12/07 01:07:46;;;;;;;11.43;10.23;;;;;;;0.92;100.00;94137.59;1053070;28;20081;-84
2020/12/07 01:08:16;;;;;;;12.68;10.98;;;;;;;0.88;100.00;94129.47;1054342;28;20028;-84
2020/12/07 01:08:47;;;;;;;12.85;10.88;;;;;;;0.78;100.00;94133.72;1053965;28;20027;-83
2020/12/07 01:09:18;;;;;;;14.77;12.10;;;;;;;0.79;100.00;94138.69;1053319;28;20016;-84
2020/12/07 01:09:49;;;;;;;11.90;10.63;;;;;;;0.86;100.00;94141.19;1053260;28;20051;-84
2020/12/07 01:10:19;;;;;;;12.20;10.90;;;;;;;0.84;100.00;94135.41;1053456;28;20031;-83
2020/12/07 01:10:56;;;;;;;12.38;11.07;;;;;;;0.84;100.00;94135.41;1053215;28;20027;-83
2020/12/07 01:11:26;;;;;;;13.05;11.65;;;;;;;0.87;100.00;94132.31;1053114;28;20028;-83
2020/12/07 01:11:59;;;;;;;12.82;11.00;;;;;;;0.84;100.00;94133.59;1053054;28;20017;-83
2020/12/07 01:12:29;;;;;;;11.73;10.52;;;;;;;0.87;100.00;94133.09;1052968;28;20024;-83
2020/12/07 01:12:59;;;;;;;12.48;11.18;;;;;;;0.83;100.00;94141.66;1052981;28;20036;-83
2020/12/07 01:13:30;;;;;;;11.48;10.30;;;;;;;0.89;100.00;94138.09;1052863;28;20062;-83
2020/12/07 01:14:00;;;;;;;11.43;10.25;;;;;;;0.84;100.00;94143.22;1053307;28;20546;-83
2020/12/07 01:14:31;;;;;;;12.50;11.10;;;;;;;0.87;100.00;94143.53;1053169;28;20469;-83
2020/12/07 01:15:01;;;;;;;12.60;11.30;;;;;;;0.90;100.00;94151.91;1052839;28;20025;-84
2020/12/07 01:15:31;;;;;;;13.52;11.63;;;;;;;0.88;100.00;94152.16;1053566;28;20020;-83
2020/12/07 01:16:02;;;;;;;14.30;11.75;;;;;;;0.85;100.00;94155.25;1057995;28;20027;-81
2020/12/07 01:16:34;;;;;;;14.27;12.48;;;;;;;0.90;100.00;94157.91;1053538;28;20578;-84
2020/12/07 01:17:05;;;;;;;13.10;11.57;;;;;;;0.87;100.00;94158.41;1051751;28;20027;-83
2020/12/07 01:17:35;;;;;;;12.43;11.07;;;;;;;0.87;100.00;94158.41;1052983;28;20020;-83
2020/12/07 01:18:06;;;;;;;12.77;11.48;;;;;;;0.90;100.00;94163.13;1052885;28;20032;-83
2020/12/07 01:18:36;;;;;;;13.07;11.50;;;;;;;0.85;100.00;94160.47;1053353;28;20020;-84
2020/12/07 01:19:07;;;;;;;11.70;10.50;;;;;;;0.89;100.00;94166.78;1052818;28;20103;-83
2020/12/07 01:19:37;;;;;;;12.80;11.48;;;;;;;0.86;100.00;94168.03;1052979;28;20514;-81
2020/12/07 01:20:08;;;;;;;13.40;12.00;;;;;;;0.87;100.00;94166.22;1052828;28;20016;-83
2020/12/07 01:20:38;;;;;;;12.23;10.93;;;;;;;0.87;100.00;94161.78;1052844;28;20020;-84
2020/12/07 01:21:08;;;;;;;12.80;11.38;;;;;;;0.89;100.00;94161.56;1053141;28;20017;-84
2020/12/07 01:21:39;;;;;;;13.50;11.68;;;;;;;0.88;100.00;94160.78;1053268;28;20027;-83
2020/12/07 01:22:09;;;;;;;13.30;11.80;;;;;;;0.89;100.00;94158.94;1053131;28;20020;-83
2020/12/07 01:22:40;;;;;;;13.00;11.60;;;;;;;0.91;100.00;94158.72;1053164;28;20020;-83
2020/12/07 01:23:10;;;;;;;12.85;11.48;;;;;;;0.85;100.00;94150.03;1053126;28;20016;-84
2020/12/07 01:23:41;;;;;;;14.65;12.55;;;;;;;0.78;100.00;94149.38;1053324;28;20020;-83
2020/12/07 01:24:12;;;;;;;14.05;12.20;;;;;;;0.77;100.00;94148.59;1054176;28;20046;-83
2020/12/07 01:24:42;;;;;;;12.65;11.35;;;;;;;0.81;100.00;94147.06;1053278;28;20441;-82
2020/12/07 01:25:12;;;;;;;13.55;11.50;;;;;;;0.82;100.00;94142.66;1052811;28;20537;-82
2020/12/07 01:25:43;;;;;;;13.38;11.88;;;;;;;0.85;100.00;94144.81;1053088;28;20101;-83
2020/12/07 01:26:14;;;;;;;12.65;11.35;;;;;;;0.89;100.00;94140.69;1053198;28;20382;-83
2020/12/07 01:26:44;;;;;;;12.65;11.35;;;;;;;0.84;100.00;94138.00;1053247;28;20357;-83
2020/12/07 01:27:15;;;;;;;11.82;10.63;;;;;;;0.87;100.00;94134.94;1053230;28;20089;-83
2020/12/07 01:27:45;;;;;;;11.70;10.52;;;;;;;0.87;100.00;94137.53;1053186;28;20419;-83
2020/12/07 01:28:15;;;;;;;11.43;10.20;;;;;;;0.89;100.00;94130.25;1053170;28;20046;-83
2020/12/07 01:28:47;;;;;;;12.80;11.50;;;;;;;0.92;100.00;94129.78;1053198;28;20111;-82
2020/12/07 01:29:18;;;;;;;11.70;10.48;;;;;;;0.93;100.00;94133.19;1053201;28;20465;-86
2020/12/07 01:29:48;;;;;;;12.35;11.05;;;;;;;0.83;100.00;94121.56;1053308;28;20024;-87
2020/12/07 01:30:18;;;;;;;13.40;12.00;;;;;;;0.88;100.00;94128.69;1055205;28;20024;-86
2020/12/07 01:30:49;;;;;;;13.10;11.65;;;;;;;0.84;100.00;94115.34;1050813;28;20020;-85
2020/12/07 01:31:20;;;;;;;12.85;11.45;;;;;;;0.84;100.00;94114.53;1051018;28;20048;-85
2020/12/07 01:31:50;;;;;;;12.82;10.90;;;;;;;0.83;100.00;94110.34;1050968;28;20052;-85
2020/12/07 01:32:20;;;;;;;13.02;11.70;;;;;;;0.78;100.00;94105.03;1054797;28;20045;-86
2020/12/07 01:32:51;;;;;;;12.43;11.13;;;;;;;0.78;100.00;94102.44;1053247;28;20020;-86
2020/12/07 01:33:21;;;;;;;13.07;11.70;;;;;;;0.81;100.00;94101.94;1053302;28;20448;-86
2020/12/07 01:33:52;;;;;;;12.68;11.32;;;;;;;0.78;100.00;94100.63;1052658;28;20028;-85
2020/12/07 01:34:22;;;;;;;13.05;11.60;;;;;;;0.85;100.00;94097.88;1052820;28;20032;-85
2020/12/07 01:34:53;;;;;;;11.95;10.75;;;;;;;0.87;100.00;94090.59;1050028;28;20032;-85
2020/12/07 01:35:23;;;;;;;12.43;11.15;;;;;;;0.90;100.00;94090.09;1052766;28;20024;-87
2020/12/07 01:35:54;;;;;;;10.90;9.90;;;;;;;0.91;100.00;94081.25;1053125;28;20032;-85
2020/12/07 01:36:24;;;;;;;11.77;10.55;;;;;;;0.91;100.00;94083.06;1053111;28;20325;-86
2020/12/07 01:36:55;;;;;;;11.77;10.57;;;;;;;0.92;100.00;94079.44;1053148;28;20021;-86
2020/12/07 01:37:25;;;;;;;11.02;9.93;;;;;;;0.90;100.00;94079.69;1053209;28;20114;-85
2020/12/07 01:37:56;;;;;;;11.27;10.07;;;;;;;0.89;100.00;94083.31;1053079;28;20492;-85
2020/12/07 01:38:26;;;;;;;11.98;10.75;;;;;;;0.88;100.00;94081.75;1053203;28;20020;-85
2020/12/07 01:38:56;;;;;;;12.10;10.90;;;;;;;0.82;100.00;94077.47;1053185;28;20035;-85
2020/12/07 01:39:27;;;;;;;11.10;9.98;;;;;;;0.82;100.00;94083.47;1053140;28;20031;-85
2020/12/07 01:39:57;;;;;;;10.73;9.63;;;;;;;0.82;100.00;94077.47;1053146;28;20024;-85
2020/12/07 01:40:28;;;;;;;12.35;11.05;;;;;;;0.83;100.00;94084.28;1053536;28;20016;-85
2020/12/07 01:40:58;;;;;;;11.70;10.50;;;;;;;0.86;100.00;94078.59;1053267;28;20024;-86
2020/12/07 01:41:28;;;;;;;10.85;9.85;;;;;;;0.85;100.00;94077.78;1053475;28;20016;-86
2020/12/07 01:41:59;;;;;;;11.15;9.95;;;;;;;0.82;100.00;94087.88;1053198;28;20028;-86
2020/12/07 01:42:29;;;;;;;11.27;10.18;;;;;;;0.80;100.00;94087.34;1053614;28;20020;-86
2020/12/07 01:43:00;;;;;;;12.35;11.10;;;;;;;0.84;100.00;94088.47;1053930;28;20089;-86
2020/12/07 01:43:30;;;;;;;11.48;10.35;;;;;;;0.82;100.00;94093.09;1053094;28;20016;-85
2020/12/07 01:44:00;;;;;;;11.40;10.30;;;;;;;0.83;100.00;94095.50;1052709;28;20028;-87
2020/12/07 01:44:31;;;;;;;10.48;9.48;;;;;;;0.84;100.00;94099.69;1052926;28;20486;-86
2020/12/07 01:45:01;;;;;;;10.93;9.73;;;;;;;0.86;100.00;94104.66;1052767;28;20031;-90
2020/12/07 01:45:32;;;;;;;11.25;10.07;;;;;;;0.86;100.00;94105.44;1052870;28;20388;-89
2020/12/07 01:46:04;;;;;;;10.52;9.50;;;;;;;0.90;100.00;94110.19;1054149;28;20097;-89
2020/12/07 01:46:34;;;;;;;9.85;8.95;;;;;;;0.93;100.00;94109.69;1053033;28;20016;-90
2020/12/07 01:47:17;;;;;;;10.30;9.30;;;;;;;0.95;100.00;94118.06;1053124;28;20020;-89
2020/12/07 01:47:47;;;;;;;11.38;10.18;;;;;;;0.96;100.00;94123.09;1044575;28;20441;-89
2020/12/07 01:48:18;;;;;;;10.40;9.40;;;;;;;0.95;100.00;94118.91;1040373;28;20032;-90
2020/12/07 01:48:52;;;;;;;10.10;9.20;;;;;;;0.99;100.00;94124.41;1046295;28;20048;-89
2020/12/07 01:49:22;;;;;;;10.65;8.77;;;;;;;1.00;100.00;94126.78;1049689;28;20025;-89
2020/12/07 01:49:54;;;;;;;10.63;9.63;;;;;;;1.00;100.00;94129.41;1049829;28;20024;-90
2020/12/07 01:50:26;;;;;;;9.45;8.55;;;;;;;0.99;100.00;94125.22;1044585;28;20017;-89
2020/12/07 01:50:56;;;;;;;10.27;9.27;;;;;;;1.01;100.00;94133.59;1042760;28;20021;-90
2020/12/07 01:51:26;;;;;;;11.90;10.02;;;;;;;1.01;100.00;94141.41;1048722;28;20054;-89
2020/12/07 01:51:57;;;;;;;11.27;10.18;;;;;;;0.99;100.00;94134.84;1044932;28;20025;-90
2020/12/07 01:52:27;;;;;;;11.68;10.50;;;;;;;0.96;100.00;94135.34;1048795;28;20041;-90
2020/12/07 01:52:58;;;;;;;11.27;10.18;;;;;;;0.85;100.00;94143.00;1048759;28;20051;-90
2020/12/07 01:53:28;;;;;;;11.05;10.02;;;;;;;0.85;100.00;94139.59;1044544;28;20051;-91
2020/12/07 01:53:59;;;;;;;10.77;9.57;;;;;;;0.85;100.00;94145.59;1040602;28;20030;-90
2020/12/07 01:54:29;;;;;;;10.95;9.85;;;;;;;0.84;100.00;94148.44;1036308;28;20026;-89
2020/12/07 01:54:59;;;;;;;11.25;10.15;;;;;;;0.86;100.00;94149.00;1032280;28;20026;-90
2020/12/07 01:55:30;;;;;;;11.65;10.52;;;;;;;0.86;100.00;94155.00;1036608;28;20017;-90
2020/12/07 01:56:00;;;;;;;10.85;9.75;;;;;;;0.93;100.00;94157.44;1040645;28;20733;-89
2020/12/07 01:56:31;;;;;;;11.00;9.50;;;;;;;0.95;100.00;94159.81;1043484;28;20074;-90
2020/12/07 01:57:01;;;;;;;10.73;9.73;;;;;;;0.96;100.00;94161.41;1043093;28;20013;-90
2020/12/07 01:57:32;;;;;;;10.63;9.63;;;;;;;0.94;100.00;94163.44;1045463;28;20114;-90
2020/12/07 01:58:02;;;;;;;10.98;9.88;;;;;;;0.95;100.00;94165.84;1040823;28;20025;-89
2020/12/07 01:58:32;;;;;;;11.73;10.52;;;;;;;0.87;100.00;94158.41;1044455;28;20029;-90
2020/12/07 01:59:03;;;;;;;11.48;10.35;;;;;;;0.92;100.00;94155.06;1047311;28;20020;-90
2020/12/07 01:59:33;;;;;;;11.77;10.57;;;;;;;0.91;100.00;94166.53;1048805;28;20015;-85
2020/12/07 02:00:07;;;;;;;12.15;10.88;;;;;;;0.91;100.00;94164.72;1053094;28;20015;-85
2020/12/07 02:00:37;;;;;;;11.23;10.13;;;;;;;0.88;100.00;94162.59;1052738;28;20558;-86
2020/12/07 02:01:08;;;;;;;11.23;10.05;;;;;;;0.90;100.00;94165.75;1052979;28;20042;-84
2020/12/07 02:01:38;;;;;;;11.20;10.10;;;;;;;0.85;100.00;94176.91;1044474;28;20021;-85
2020/12/07 02:02:08;;;;;;;12.23;10.35;;;;;;;0.86;100.00;94173.25;1044504;28;20024;-85
2020/12/07 02:02:39;;;;;;;10.80;9.73;;;;;;;0.87;100.00;94179.25;1048589;28;20024;-84
2020/12/07 02:03:10;;;;;;;11.27;10.18;;;;;;;0.86;100.00;94167.25;1048588;28;20036;-85
2020/12/07 02:03:40;;;;;;;12.40;11.10;;;;;;;0.80;100.00;94168.19;1056969;28;20011;-85
2020/12/07 02:04:10;;;;;;;11.48;10.32;;;;;;;0.87;100.00;94166.22;1056805;28;20024;-85
2020/12/07 02:04:41;;;;;;;11.00;9.90;;;;;;;0.87;100.00;94180.06;1052961;28;20016;-85
2020/12/07 02:05:11;;;;;;;11.63;10.43;;;;;;;0.90;100.00;94178.78;1052357;28;20015;-85
2020/12/07 02:05:42;;;;;;;11.18;10.07;;;;;;;0.93;100.00;94173.09;1048521;28;20072;-85
2020/12/07 02:06:12;;;;;;;10.63;9.63;;;;;;;0.96;100.00;94174.47;1048603;28;20020;-86
2020/12/07 02:06:43;;;;;;;11.15;10.02;;;;;;;0.90;100.00;94178.78;1048606;28;20025;-85
2020/12/07 02:07:18;;;;;;;10.88;9.77;;;;;;;0.88;100.00;94159.97;1048522;28;20023;-86
2020/12/07 02:07:49;;;;;;;11.55;10.45;;;;;;;0.92;100.00;94165.50;1052475;28;20026;-85
2020/12/07 02:08:20;;;;;;;10.93;9.82;;;;;;;0.95;100.00;94176.28;1052797;28;20027;-85
2020/12/07 02:08:50;;;;;;;11.73;10.52;;;;;;;0.93;100.00;94167.88;1052957;28;20373;-85
2020/12/07 02:09:27;;;;;;;12.63;11.32;;;;;;;0.92;100.00;94166.28;1048681;28;20016;-85
2020/12/07 02:09:58;;;;;;;11.77;10.57;;;;;;;0.96;100.00;94162.22;1049600;28;20031;-85
2020/12/07 02:10:28;;;;;;;11.32;10.23;;;;;;;0.98;100.00;94167.97;1052718;28;20361;-85
2020/12/07 02:10:58;;;;;;;11.23;10.18;;;;;;;0.96;100.00;94159.59;1049424;28;20017;-83
2020/12/07 02:11:29;;;;;;;12.30;11.07;;;;;;;0.93;100.00;94156.66;1052859;28;20012;-85
2020/12/07 02:11:59;;;;;;;12.02;10.73;;;;;;;0.86;100.00;94167.25;1053024;28;20017;-85
2020/12/07 02:12:30;;;;;;;11.55;10.35;;;;;;;0.90;100.00;94163.13;1052918;28;20016;-85
2020/12/07 02:13:00;;;;;;;10.25;9.25;;;;;;;0.93;100.00;94159.25;1053106;28;20020;-85
2020/12/07 02:13:30;;;;;;;11.55;10.45;;;;;;;0.91;100.00;94153.50;1053000;28;20048;-85
2020/12/07 02:14:01;;;;;;;10.35;9.35;;;;;;;0.93;100.00;94162.66;1052729;28;20107;-86
2020/12/07 02:14:31;;;;;;;10.98;9.98;;;;;;;0.95;100.00;94154.59;1053153;28;20023;-83
2020/12/07 02:15:02;;;;;;;10.60;9.60;;;;;;;0.94;100.00;94150.41;1052702;28;20028;-88
2020/12/07 02:15:32;;;;;;;10.25;9.25;;;;;;;0.93;100.00;94156.66;1052475;28;20098;-88
2020/12/07 02:16:03;;;;;;;10.25;9.25;;;;;;;0.92;100.00;94158.47;1052865;28;20023;-87
2020/12/07 02:16:33;;;;;;;11.35;10.20;;;;;;;0.94;100.00;94156.41;1052936;28;20031;-87
2020/12/07 02:17:04;;;;;;;10.50;9.40;;;;;;;0.88;100.00;94147.72;1052793;28;20031;-86
2020/12/07 02:17:34;;;;;;;10.50;9.43;;;;;;;0.92;100.00;94149.84;1052766;28;20071;-86
2020/12/07 02:18:05;;;;;;;10.55;9.55;;;;;;;0.94;100.00;94145.19;1053098;28;20024;-86
2020/12/07 02:18:35;;;;;;;10.20;9.27;;;;;;;0.91;100.00;94143.84;1048714;28;20016;-86
2020/12/07 02:19:06;;;;;;;11.60;10.48;;;;;;;0.88;100.00;94145.13;1048649;28;20024;-86
2020/12/07 02:19:36;;;;;;;11.05;9.98;;;;;;;0.89;100.00;94135.47;1048733;28;20473;-86
2020/12/07 02:20:07;;;;;;;10.65;9.55;;;;;;;0.92;100.00;94142.03;1048778;28;20508;-86
2020/12/07 02:20:37;;;;;;;10.82;9.73;;;;;;;0.84;100.00;94138.00;1052892;28;20020;-86
2020/12/07 02:21:08;;;;;;;10.07;9.15;;;;;;;0.80;100.00;94132.47;1053182;28;20016;-86
2020/12/07 02:21:38;;;;;;;10.57;9.48;;;;;;;0.85;100.00;94136.97;1052971;28;20020;-86
2020/12/07 02:22:08;;;;;;;11.13;10.02;;;;;;;0.82;100.00;94129.59;1053114;28;20016;-86